Nearby METAR Reports

 

KSJC - San Jose, California, USA
Distance from station: NE 9mi, 14km
Updated: Sun, 05-Apr-2020 9:53am PDT
Overcast
Overcast
 Wind from S
Wind: S 16 mph , 26 km/h, Gust: 23 mph , 37 km/h
Temperature: 55°F , 13°C
Dew Point: 46°F , 8°C
Humidity: 72%
Barometer: 29.67 inHg , 1004.7 hPa
Clouds: Overcast
Visibility: 10 miles , 16 km
Cloud details: Few Clouds 500 ft
Mostly cloudy 3100 ft
Overcast 6000 ft
2020/04/05 16:53 KSJC 051653Z 17014G20KT 10SM FEW005 BKN031 OVC060 13/08 A2967 RMK AO2 SLP045 T01280078 $
KNUQ - Moffett Nas/Mtn, California, USA
Distance from station: N 9mi, 14km
Updated: Thu, 21-Nov-2019 8:56am PST
NOT Current

 
Barometer: 29.86 inHg , 1011.2 hPa
2019/11/21 16:56 KNUQ 211656Z AUTO A2986 RMK AO2 SLP116 PWINO $
KPAO - Palo Alto, California, USA
Distance from station: NNW 14mi, 23km
Updated: Sun, 05-Apr-2020 9:55am PDT
Light rain, Overcast
Light rain, Overcast
 Wind from SSE
Wind: SSE 9 mph , 15 km/h
Temperature: 55°F , 13°C
Dew Point: 46°F , 8°C
Humidity: 72%
Barometer: 29.68 inHg , 1005.1 hPa
Summary: Light rain
Clouds: Overcast
Visibility: 8 miles , 13 km
Cloud details: Mostly cloudy 3000 ft
Overcast 6000 ft
2020/04/05 16:55 KPAO 051655Z 16008KT 8SM -RA BKN030 OVC060 13/08 A2968
 
KRHV - San Jose/Reid, California, USA
Distance from station: ENE 12mi, 19km
Updated: Sun, 05-Apr-2020 7:47am PDT
NOT Current
Rain, Overcast
Rain, Overcast
 Wind from SSE
Wind: SSE 13 mph , 20 km/h, Gust: 24 mph , 39 km/h
Temperature: 54°F , 12°C
Dew Point: 48°F , 9°C
Humidity: 82%
Barometer: 29.66 inHg , 1004.4 hPa
Summary: Rain
Clouds: Overcast
Visibility: 6 miles , 10 km
Cloud details: Mostly cloudy 2800 ft
Overcast 5000 ft
2020/04/05 14:47 KRHV 051447Z 15011G21KT 6SM RA BKN028 OVC050 12/09 A2966
KOAK - Oakland, California, USA
Distance from station: NNW 31mi, 50km
Updated: Sun, 05-Apr-2020 10:21am PDT
Rain, Mist, Overcast
Rain, Mist, Overcast
 Wind from SW
Wind: SW 15 mph , 24 km/h
Temperature: 54°F , 12°C
Dew Point: 48°F , 9°C
Humidity: 82%
Barometer: 29.66 inHg , 1004.4 hPa
Summary: Rain, Mist
Clouds: Overcast
Visibility: 4 miles , 6 km
Cloud details: Partly cloudy 1000 ft
Mostly cloudy 3200 ft
Overcast 4500 ft
2020/04/05 17:21 KOAK 051721Z 22013KT 4SM RA BR SCT010 BKN032 OVC045 12/09 A2966 RMK AO2 P0009 T01170094 $
KSQL - San Carlos Airpo, California, USA
Distance from station: NW 21mi, 34km
Updated: Sun, 05-Apr-2020 9:47am PDT
Overcast
Overcast
 Wind from SSE
Wind: SSE 7 mph , 11 km/h
Temperature: 54°F , 12°C
Dew Point: 50°F , 10°C
Humidity: 88%
Barometer: 29.66 inHg , 1004.4 hPa
Clouds: Overcast
Visibility: 10 miles , 16 km
Cloud details: Overcast 2400 ft
2020/04/05 16:47 KSQL 051647Z 15006KT 10SM OVC024 12/10 A2966
 
KSFO - San Francisco, California, USA
Distance from station: NW 30mi, 49km
Updated: Sun, 05-Apr-2020 9:56am PDT
Light rain, Mist, Overcast
Light rain, Mist, Overcast
 Wind from SSW
Wind: SSW 8 mph , 13 km/h
Temperature: 50°F , 10°C
Wind Chill: 47°F , 8°C
Dew Point: 46°F , 8°C
Humidity: 88%
Barometer: 29.65 inHg , 1004.1 hPa
Summary: Light rain, Mist
Clouds: Overcast
Visibility: 3 miles , 5 km
Cloud details: Few Clouds 800 ft
Mostly cloudy 2900 ft
Overcast 3500 ft
2020/04/05 16:56 KSFO 051656Z 21007KT 3SM -RA BR FEW008 BKN029 OVC035 10/08 A2965 RMK AO2 PK WND 20029/1617 SLP039 P0015 T01000083 $
KE16 - San Martin, California, USA
Distance from station: ESE 27mi, 43km
Updated: Thu, 14-Nov-2019 1:35am PST
NOT Current
Overcast
Overcast
 Wind from SE
Wind: SE 7 mph , 11 km/h
Temperature: 54°F , 12°C
Dew Point: 50°F , 10°C
Humidity: 88%
Barometer: 30.05 inHg , 1017.6 hPa
Clouds: Overcast
Visibility: 10 miles , 16 km
Cloud details: Overcast 1400 ft
2019/11/14 09:35 KE16 140935Z AUTO 13006KT 10SM OVC014 12/10 A3005 RMK AO2
KWVI - Watsonville, California, USA
Distance from station: SSE 27mi, 44km
Updated: Sun, 05-Apr-2020 10:23am PDT
Overcast
Overcast
 Wind from SSW
Wind: SSW 16 mph , 26 km/h, Gust: 24 mph , 39 km/h
Temperature: 55°F , 13°C
Barometer: 29.72 inHg , 1006.4 hPa
Clouds: Overcast
Visibility: 10 miles , 16 km
Cloud details: Partly cloudy 1600 ft
Partly cloudy 2900 ft
Overcast 4200 ft
2020/04/05 17:23 KWVI 051723Z AUTO 21014G21KT 10SM SCT016 SCT029 OVC042 13/ A2972 RMK AO2 T0133 $
 
KHAF - Half Moon Bay, California, USA
Distance from station: WNW 31mi, 50km
Updated: Sun, 05-Apr-2020 10:15am PDT
Light rain, Mostly cloudy
Light rain, Mostly cloudy
 Wind from SW
Wind: SW 12 mph , 19 km/h, Gust: 21 mph , 33 km/h
Temperature: 50°F , 10°C
Wind Chill: 45°F , 7°C
Dew Point: 50°F , 10°C
Humidity: 100%
Barometer: 29.67 inHg , 1004.7 hPa
Summary: Light rain
Clouds: Mostly cloudy
Visibility: 2 1/2 miles , 4 km
Cloud details: Few Clouds 800 ft
Mostly cloudy 1300 ft
Mostly cloudy 4900 ft
2020/04/05 17:15 KHAF 051715Z AUTO 22010G18KT 2 1/2SM -RA FEW008 BKN013 BKN049 10/10 A2967 RMK AO2 P0002
KHWD - Hayward, California, USA
Distance from station: N 28mi, 44km
Updated: Sun, 05-Apr-2020 9:54am PDT
Overcast
Overcast
 Wind from S
Wind: S 10 mph , 17 km/h, Gust: 21 mph , 33 km/h
Temperature: 54°F , 12°C
Dew Point: 48°F , 9°C
Humidity: 82%
Barometer: 29.64 inHg , 1003.7 hPa
Clouds: Overcast
Visibility: 10 miles , 16 km
Cloud details: Mostly cloudy 2900 ft
Mostly cloudy 3900 ft
Overcast 6500 ft
2020/04/05 16:54 KHWD 051654Z 18009G18KT 10SM BKN029 BKN039 OVC065 12/09 A2964 RMK AO2 RAB24E36 SLP048 P0000 T01220089
KLVK - Livermore, California, USA
Distance from station: NNE 31mi, 51km
Updated: Sun, 05-Apr-2020 9:53am PDT
Light rain, Mostly cloudy
Light rain, Mostly cloudy
 Wind from SW
Wind: SW 14 mph , 22 km/h, Gust: 23 mph , 37 km/h
Temperature: 55°F , 13°C
Dew Point: 48°F , 9°C
Humidity: 77%
Barometer: 29.63 inHg , 1003.4 hPa
Summary: Light rain
Clouds: Mostly cloudy
Visibility: 10 miles , 16 km
Cloud details: Partly cloudy 3600 ft
Mostly cloudy 4500 ft
Mostly cloudy 5500 ft
2020/04/05 16:53 KLVK 051653Z 22012G20KT 10SM -RA SCT036 BKN045 BKN055 13/09 A2963 RMK AO2 RAE32B53 SLP032 P0001 T01280089